FredonyerEastRWIS Atmospheric Data: 03/13/2018 Summary  Detailed Graphs  Station List

  Temperature     Wind Precipitation Visibility
Timestamp Air Wet
Bulb
Dew-
point
24-hr
Max
24-hr
Min
Relative
Humidity
Atmospheric
Pressure
Avg
Speed
Avg
Dir
Spot
Speed
Spot
Dir
Max
Speed
Max
Dir
  Rate Situation Start End 1 hr 3 hr 6 hr 12 hr 24 hr   Situation
Date Time °F °F °F °F °F % in Hg mph ° mph ° mph ° Y/N in/hr text Date Time Date Time in in in in in mi text
03/13/2018 12:08 AM 38.48 34.70 28.76 55.58 27.50 67.0 Not Reported 2.24 NE 2.24 N 3.36 E Yes x Unknown 03/12/2018 11:50 PM   x x x x x Not Reported Not Reported
03/13/2018 12:23 AM 38.48 34.70 28.94 55.58 27.50 68.0 Not Reported 2.01 W 2.01 S 4.03 S Yes x Unknown 03/13/2018 12:18 AM   x x x x x Not Reported Not Reported
03/13/2018 12:38 AM 37.94 34.52 28.58 55.58 27.50 68.0 Not Reported 0.22 S 0.00 S 2.24 N Yes x Unknown 03/13/2018 12:18 AM   x x x x x Not Reported Not Reported
03/13/2018 12:53 AM 37.76 34.16 28.22 55.58 27.50 68.0 Not Reported 0.22 N 1.34 N 2.01 SW Yes x Unknown 03/13/2018 12:44 AM   x x x x x Not Reported Not Reported
03/13/2018 01:08 AM 37.58 34.16 28.22 55.58 27.50 68.0 Not Reported 0.00 NW 0.22 SW 1.34 W Yes x Unknown 03/13/2018 12:44 AM   x x x x x Not Reported Not Reported
03/13/2018 01:23 AM 37.76 34.16 28.40 55.58 27.50 68.0 Not Reported 0.45 NE 2.01 W 2.68 NE Yes x Unknown 03/13/2018 12:44 AM   x x x x x Not Reported Not Reported
03/13/2018 01:38 AM 37.76 34.16 28.40 55.58 27.50 68.0 Not Reported 1.57 W 0.89 NW 2.24 W Yes x Unknown 03/13/2018 12:44 AM   x x x x x Not Reported Not Reported
03/13/2018 01:53 AM 37.76 34.34 28.58 55.58 27.50 69.0 Not Reported 1.79 N 2.68 E 4.47 N Yes x Unknown 03/13/2018 12:44 AM   x x x x x Not Reported Not Reported
03/13/2018 02:08 AM 37.76 34.52 28.76 55.58 27.50 69.0 Not Reported 0.45 NW 0.22 NW 2.46 S Yes x Unknown 03/13/2018 12:44 AM   x x x x x Not Reported Not Reported
03/13/2018 02:23 AM 37.76 34.34 28.76 55.58 27.50 69.0 Not Reported 1.79 SW 2.46 SW 4.03 N Yes x Unknown 03/13/2018 12:44 AM   x x x x x Not Reported Not Reported
03/13/2018 02:38 AM 37.40 34.16 28.40 55.58 27.50 69.0 Not Reported 0.67 N 1.79 NW 2.24 NW Yes x Unknown 03/13/2018 12:44 AM   x x x x x Not Reported Not Reported
03/13/2018 02:53 AM 37.40 33.98 28.40 55.58 27.50 69.0 Not Reported 0.67 W 2.01 N 4.70 S Yes x Unknown 03/13/2018 12:44 AM   x x x x x Not Reported Not Reported
03/13/2018 03:08 AM 38.12 34.70 29.12 55.58 27.50 69.0 Not Reported 0.67 N 1.79 N 2.01 N Yes x Unknown 03/13/2018 12:44 AM   x x x x x Not Reported Not Reported
03/13/2018 03:23 AM 38.48 35.06 29.48 55.58 27.50 69.0 Not Reported 0.89 NE 1.79 N 5.14 SW Yes x Unknown 03/13/2018 12:44 AM   x x x x x Not Reported Not Reported
03/13/2018 03:38 AM 37.94 34.70 28.94 55.58 27.50 69.0 Not Reported 2.46 N 0.00 SW 5.59 SE Yes x Unknown 03/13/2018 12:44 AM   x x x x x Not Reported Not Reported
03/13/2018 03:53 AM 43.88 39.92 34.52 55.58 27.50 69.0 Not Reported 4.03 S 10.07 S 13.65 SW Yes x Unknown 03/13/2018 03:46 AM   x x x x x Not Reported Not Reported
03/13/2018 04:08 AM 44.06 39.56 33.26 55.58 27.50 65.0 Not Reported 9.62 SW 4.92 S 16.11 NW No x No Precipitation 03/13/2018 04:06 AM 03/13/2018 04:08 AM x x x x x Not Reported Not Reported
03/13/2018 04:23 AM 44.42 39.02 30.56 55.58 27.50 57.0 Not Reported 6.04 SE 5.14 S 16.33 S Yes x Unknown 03/13/2018 04:21 AM   x x x x x Not Reported Not Reported
03/13/2018 04:38 AM 44.60 39.02 30.20 55.58 27.50 56.0 Not Reported 5.59 SW 4.25 SW 15.43 W Yes x Unknown 03/13/2018 04:21 AM   x x x x x Not Reported Not Reported
03/13/2018 04:53 AM 44.78 39.20 30.92 55.58 27.50 58.0 Not Reported 3.58 SE 2.91 S 14.76 W Yes x Unknown 03/13/2018 04:21 AM   x x x x x Not Reported Not Reported
03/13/2018 05:08 AM 44.42 39.20 31.46 55.58 27.50 59.0 Not Reported 5.59 W 8.05 W 16.11 SW Yes x Unknown 03/13/2018 04:21 AM   x x x x x Not Reported Not Reported
03/13/2018 05:23 AM 44.42 39.38 31.46 55.58 27.50 60.0 Not Reported 5.37 SE 8.95 SE 11.86 SW Yes x Unknown 03/13/2018 04:21 AM   x x x x x Not Reported Not Reported
03/13/2018 05:38 AM 44.42 39.20 30.92 55.58 27.50 58.0 Not Reported 4.25 S 4.25 W 28.41 S Yes x Unknown 03/13/2018 04:21 AM   x x x x x Not Reported Not Reported
03/13/2018 05:53 AM 44.06 38.66 30.56 55.58 27.50 58.0 Not Reported 6.26 S 4.92 SW 18.12 NW Yes x Unknown 03/13/2018 04:21 AM   x x x x x Not Reported Not Reported
03/13/2018 06:08 AM 43.88 38.66 30.02 55.58 27.50 58.0 Not Reported 8.72 S 10.51 SE 15.21 S No x No Precipitation 03/13/2018 04:21 AM 03/13/2018 06:09 AM x x x x x Not Reported Not Reported
03/13/2018 06:23 AM 43.88 38.30 29.30 55.58 27.50 56.0 Not Reported 4.47 S 4.47 S 15.66 SE No x No Precipitation 03/13/2018 06:12 AM 03/13/2018 06:13 AM x x x x x Not Reported Not Reported
03/13/2018 06:38 AM 43.88 38.12 28.58 55.58 27.50 54.0 Not Reported 2.24 S 4.47 S 14.54 SW Yes x Unknown 03/13/2018 06:37 AM   x x x x x Not Reported Not Reported
03/13/2018 06:53 AM 44.24 38.30 28.58 55.58 27.50 53.0 Not Reported 4.70 SW 3.80 SE 15.43 S Yes x Unknown 03/13/2018 06:37 AM   x x x x x Not Reported Not Reported
03/13/2018 07:09 AM 43.88 37.94 27.86 55.58 28.40 53.0 Not Reported 8.05 SW 3.58 W 18.79 SW Yes x Unknown 03/13/2018 06:37 AM   x x x x x Not Reported Not Reported
03/13/2018 07:23 AM 42.98 37.76 28.40 55.58 28.40 55.0 Not Reported 5.82 S 4.92 S 12.30 SW Yes x Unknown 03/13/2018 06:37 AM   x x x x x Not Reported Not Reported
03/13/2018 07:38 AM 43.34 37.76 28.76 55.58 28.40 56.0 Not Reported 5.59 S 4.47 S 14.54 SW Yes x Unknown 03/13/2018 06:37 AM   x x x x x Not Reported Not Reported
03/13/2018 07:53 AM 44.06 38.12 28.22 55.58 28.40 53.0 Not Reported 8.72 W 5.37 W 18.57 SW No x No Precipitation 03/13/2018 06:37 AM 03/13/2018 07:48 AM x x x x x Not Reported Not Reported
03/13/2018 08:08 AM 44.42 38.12 26.96 55.58 33.08 49.0 Not Reported 4.92 S 2.91 NE 17.00 S No x No Precipitation 03/13/2018 06:37 AM 03/13/2018 07:48 AM x x x x x Not Reported Not Reported
03/13/2018 08:23 AM 44.42 38.30 26.60 55.58 33.08 49.0 Not Reported 4.03 S 4.03 S 23.49 W Yes x Unknown 03/13/2018 08:18 AM   x x x x x Not Reported Not Reported
03/13/2018 08:38 AM 43.52 37.94 28.04 55.58 33.08 54.0 Not Reported 4.92 SW 7.83 SE 17.00 SE Yes x Unknown 03/13/2018 08:18 AM   x x x x x Not Reported Not Reported
03/13/2018 08:53 AM 42.98 37.76 28.94 55.58 33.08 57.0 Not Reported 2.68 NE 6.04 SE 10.29 SW Yes x Unknown 03/13/2018 08:18 AM   x x x x x Not Reported Not Reported
03/13/2018 09:08 AM 42.98 37.76 29.30 55.58 35.42 58.0 Not Reported 2.24 W 3.80 W 11.63 W Yes x Unknown 03/13/2018 08:18 AM   x x x x x Not Reported Not Reported
03/13/2018 09:23 AM 44.06 39.02 30.92 55.58 35.42 59.0 Not Reported 2.68 NW 7.38 SW 7.61 W Yes x Unknown 03/13/2018 08:18 AM   x x x x x Not Reported Not Reported
03/13/2018 09:38 AM 44.06 38.66 30.02 55.58 35.42 57.0 Not Reported 4.03 SE 4.70 SW 10.74 SW Yes x Unknown 03/13/2018 08:18 AM   x x x x x Not Reported Not Reported
03/13/2018 09:53 AM 43.52 38.30 30.02 55.58 35.42 58.0 Not Reported 4.03 SE 1.34 S 12.75 SE Yes x Unknown 03/13/2018 08:18 AM   x x x x x Not Reported Not Reported
03/13/2018 10:08 AM 42.98 37.94 29.66 55.58 35.42 58.0 Not Reported 2.91 N 5.37 N 10.29 S Yes x Unknown 03/13/2018 08:18 AM   x x x x x Not Reported Not Reported
03/13/2018 10:23 AM 42.26 37.40 29.30 55.58 35.42 59.0 Not Reported 6.93 SW 1.34 S 12.30 W Yes x Unknown 03/13/2018 08:18 AM   x x x x x Not Reported Not Reported
03/13/2018 10:38 AM 41.18 36.50 28.76 55.58 35.42 60.0 Not Reported 4.47 SW 2.01 SW 10.96 SW Yes x Unknown 03/13/2018 08:18 AM   x x x x x Not Reported Not Reported
03/13/2018 10:53 AM 40.46 35.78 28.22 55.58 35.42 61.0 Not Reported 4.25 W 6.93 SW 9.84 S Yes x Unknown 03/13/2018 08:18 AM   x x x x x Not Reported Not Reported
03/13/2018 11:08 AM 39.74 35.60 28.04 55.58 35.42 62.0 Not Reported 0.89 S 5.37 NW 4.25 W Yes x Unknown 03/13/2018 08:18 AM   x x x x x Not Reported Not Reported
03/13/2018 11:23 AM 38.84 34.70 27.68 55.58 35.42 64.0 Not Reported 1.57 W 2.46 NW 8.95 W Yes x Unknown 03/13/2018 08:18 AM   x x x x x Not Reported Not Reported
03/13/2018 11:38 AM 38.48 34.52 27.68 55.58 35.42 64.0 Not Reported 0.00 NW 0.67 NE 2.91 N Yes x Unknown 03/13/2018 08:18 AM   x x x x x Not Reported Not Reported
03/13/2018 11:53 AM 38.48 34.52 28.04 55.58 35.42 65.0 Not Reported 0.00 E 1.12 NW 1.34 SE Yes x Unknown 03/13/2018 08:18 AM   x x x x x Not Reported Not Reported
03/13/2018 12:08 PM 39.38 35.60 29.12 55.58 35.42 66.0 Not Reported 0.00 NE 0.89 W 1.79 SE Yes x Unknown 03/13/2018 08:18 AM   x x x x x Not Reported Not Reported
03/13/2018 12:23 PM 40.46 36.50 30.20 55.58 35.42 66.0 Not Reported 0.67 NW 2.46 NW 2.24 N Yes x Unknown 03/13/2018 08:18 AM   x x x x x Not Reported Not Reported
03/13/2018 12:38 PM 41.54 37.40 30.92 55.58 35.42 65.0 Not Reported 1.57 SE 1.79 S 5.59 SE Yes x Unknown 03/13/2018 08:18 AM   x x x x x Not Reported Not Reported
03/13/2018 12:53 PM 42.62 38.30 31.82 55.58 35.42 65.0 Not Reported 2.68 SW 0.00 NW 5.37 E Yes x Unknown 03/13/2018 08:18 AM   x x x x x Not Reported Not Reported
03/13/2018 01:09 PM 42.98 37.94 30.20 55.58 35.42 60.0 Not Reported 2.91 E 4.03 SE 12.75 SE Yes x Unknown 03/13/2018 12:59 PM   x x x x x Not Reported Not Reported
03/13/2018 01:23 PM 43.88 38.66 30.56 55.58 35.42 59.0 Not Reported 3.13 S 7.16 SE 10.29 SE Yes x Unknown 03/13/2018 01:24 PM   x x x x x Not Reported Not Reported
03/13/2018 01:38 PM 44.06 38.48 29.48 55.58 35.42 56.0 Not Reported 2.91 S 3.13 SW 12.53 SE Yes x Unknown 03/13/2018 01:29 PM   x x x x x Not Reported Not Reported
03/13/2018 01:55 PM 44.24 38.84 31.10 55.58 35.42 59.0 Not Reported 1.57 E 4.03 NW 10.74 SE Yes x Unknown 03/13/2018 01:29 PM   x x x x x Not Reported Not Reported
03/13/2018 02:08 PM 44.06 39.02 30.92 55.58 35.42 59.0 Not Reported 1.34 SW 1.12 S 9.62 SW Yes x Unknown 03/13/2018 01:29 PM   x x x x x Not Reported Not Reported
03/13/2018 02:23 PM 42.98 37.94 30.20 55.58 35.42 60.0 Not Reported 5.59 S 8.05 W 14.09 W Yes x Unknown 03/13/2018 01:29 PM   x x x x x Not Reported Not Reported
03/13/2018 02:38 PM 40.46 36.14 28.40 55.58 35.42 61.0 Not Reported 6.49 SW 6.26 NW 13.65 W Yes x Unknown 03/13/2018 01:29 PM   x x x x x Not Reported Not Reported
03/13/2018 02:54 PM 39.20 34.88 27.32 55.58 35.42 61.0 Not Reported 7.16 SW 4.03 NW 14.54 NW Yes x Unknown 03/13/2018 01:29 PM   x x x x x Not Reported Not Reported
03/13/2018 03:08 PM 39.20 34.88 27.14 55.58 35.42 61.0 Not Reported 4.03 S 10.07 SW 11.63 W Yes x Unknown 03/13/2018 01:29 PM   x x x x x Not Reported Not Reported
03/13/2018 03:23 PM 39.02 34.52 26.78 55.58 35.42 61.0 Not Reported 3.36 SW 4.47 S 9.62 SW Yes x Unknown 03/13/2018 01:29 PM   x x x x x Not Reported Not Reported
03/13/2018 03:38 PM 38.30 34.16 26.24 55.58 35.42 62.0 Not Reported 5.82 W 5.59 S 12.75 SW Yes x Unknown 03/13/2018 01:29 PM   x x x x x Not Reported Not Reported
03/13/2018 03:53 PM 38.30 33.98 26.06 55.58 35.42 60.0 Not Reported 4.70 S 2.01 NW 11.18 SW Yes x Unknown 03/13/2018 01:29 PM   x x x x x Not Reported Not Reported
03/13/2018 04:08 PM 37.76 33.62 25.70 54.14 35.42 61.0 Not Reported 6.04 SW 5.14 NW 12.53 SW Yes x Unknown 03/13/2018 01:29 PM   x x x x x Not Reported Not Reported
03/13/2018 04:23 PM 35.78 32.00 24.44 54.14 35.42 62.0 Not Reported 5.14 SW 5.14 W 10.07 W Yes x Unknown 03/13/2018 01:29 PM   x x x x x Not Reported Not Reported
03/13/2018 04:38 PM 34.70 30.92 23.72 54.14 34.52 63.0 Not Reported 5.82 NW 4.92 NW 12.30 W Yes x Unknown 03/13/2018 01:29 PM   x x x x x Not Reported Not Reported
03/13/2018 04:53 PM 34.34 30.92 23.72 54.14 34.16 64.0 Not Reported 0.89 S 3.80 SW 13.20 W Yes x Unknown 03/13/2018 01:29 PM   x x x x x Not Reported Not Reported
03/13/2018 05:08 PM 35.06 31.46 24.26 46.94 34.16 64.0 Not Reported 4.70 W 2.46 SW 10.74 SW Yes x Unknown 03/13/2018 01:29 PM   x x x x x Not Reported Not Reported
03/13/2018 05:23 PM 35.24 31.46 24.26 46.94 34.16 63.0 Not Reported 3.58 SW 1.79 NW 8.72 SW Yes x Unknown 03/13/2018 01:29 PM   x x x x x Not Reported Not Reported
03/13/2018 05:38 PM 35.42 31.64 24.08 46.94 34.16 62.0 Not Reported 3.80 SE 2.68 S 10.07 NW Yes x Unknown 03/13/2018 01:29 PM   x x x x x Not Reported Not Reported
03/13/2018 05:53 PM 35.78 31.82 24.08 46.94 34.16 61.0 Not Reported 1.79 SW 0.00 N 8.95 SW No x No Precipitation 03/13/2018 05:49 PM 03/13/2018 05:50 PM x x x x x Not Reported Not Reported
03/13/2018 06:08 PM 35.60 31.64 23.36 44.96 34.16 60.0 Not Reported 4.03 SW 2.24 SW 9.62 SW Yes x Unknown 03/13/2018 06:03 PM   x x x x x Not Reported Not Reported
03/13/2018 06:23 PM 35.42 31.46 23.36 44.96 34.16 61.0 Not Reported 2.01 NW 2.68 W 8.72 S Yes x Unknown 03/13/2018 06:03 PM   x x x x x Not Reported Not Reported
03/13/2018 06:38 PM 34.88 31.28 23.36 44.96 34.16 62.0 Not Reported 2.24 SW 1.57 SW 7.83 W Yes x Unknown 03/13/2018 06:03 PM   x x x x x Not Reported Not Reported
03/13/2018 06:53 PM 34.34 30.74 23.18 44.96 34.16 63.0 Not Reported 1.12 SW 0.00 SW 5.59 SW Yes x Unknown 03/13/2018 06:03 PM   x x x x x Not Reported Not Reported
03/13/2018 07:08 PM 33.98 30.38 23.00 44.96 33.98 64.0 Not Reported 1.34 NE 0.22 NE 2.46 NE Yes x Unknown 03/13/2018 06:03 PM   x x x x x Not Reported Not Reported
03/13/2018 07:23 PM 33.80 30.38 23.36 44.96 33.80 65.0 Not Reported 1.79 SE 1.12 E 2.91 SE No x No Precipitation 03/13/2018 07:21 PM 03/13/2018 07:23 PM x x x x x Not Reported Not Reported
03/13/2018 07:38 PM 33.80 30.38 23.54 44.96 33.80 65.0 Not Reported 2.01 SE 2.91 SE 4.47 SE Yes x Unknown 03/13/2018 07:26 PM   x x x x x Not Reported Not Reported
03/13/2018 07:53 PM 34.16 30.74 24.08 44.96 33.80 66.0 Not Reported 2.68 SW 2.01 SE 7.38 SW Yes x Unknown 03/13/2018 07:26 PM   x x x x x Not Reported Not Reported
03/13/2018 08:08 PM 33.98 30.56 23.72 44.96 33.80 65.0 Not Reported 1.12 S 0.22 NE 9.17 W Yes x Unknown 03/13/2018 07:26 PM   x x x x x Not Reported Not Reported
03/13/2018 08:23 PM 33.44 30.20 23.36 44.96 33.44 65.0 Not Reported 1.34 S 2.24 SE 4.25 S Yes x Unknown 03/13/2018 07:26 PM   x x x x x Not Reported Not Reported
03/13/2018 08:38 PM 34.16 30.38 23.54 44.96 33.44 64.0 Not Reported 3.58 SW 6.04 W 9.62 SW Yes x Unknown 03/13/2018 07:26 PM   x x x x x Not Reported Not Reported
03/13/2018 08:53 PM 33.98 30.20 22.82 44.96 33.44 63.0 Not Reported 2.46 SE 1.57 S 8.95 S Yes x Unknown 03/13/2018 07:26 PM   x x x x x Not Reported Not Reported
03/13/2018 09:08 PM 33.44 30.02 22.82 44.96 33.44 64.0 Not Reported 1.12 SE 2.24 W 4.92 W Yes x Unknown 03/13/2018 09:06 PM   x x x x x Not Reported Not Reported
03/13/2018 09:23 PM 33.80 30.38 23.00 44.96 33.44 64.0 Not Reported 4.47 S 4.70 S 11.18 S Yes x Unknown 03/13/2018 09:17 PM   x x x x x Not Reported Not Reported
03/13/2018 09:38 PM 33.80 30.20 22.46 44.96 33.44 63.0 Not Reported 3.36 W 4.70 S 8.95 SW Yes x Unknown 03/13/2018 09:27 PM   x x x x x Not Reported Not Reported
03/13/2018 09:53 PM 33.62 29.84 22.10 44.96 33.44 62.0 Not Reported 2.01 SW 0.89 W 12.30 NW Yes x Unknown 03/13/2018 09:27 PM   x x x x x Not Reported Not Reported
03/13/2018 10:08 PM 33.62 29.84 22.10 44.96 33.44 62.0 Not Reported 2.91 SE 1.12 N 9.17 S Yes x Unknown 03/13/2018 09:27 PM   x x x x x Not Reported Not Reported
03/13/2018 10:23 PM 33.62 29.84 21.92 44.96 33.44 61.0 Not Reported 4.47 S 3.36 SW 11.63 SW Yes x Unknown 03/13/2018 10:21 PM   x x x x x Not Reported Not Reported
03/13/2018 10:38 PM 33.62 29.84 21.92 44.96 33.44 61.0 Not Reported 3.36 W 2.01 SW 10.74 SW Yes x Unknown 03/13/2018 10:21 PM   x x x x x Not Reported Not Reported
03/13/2018 10:53 PM 33.44 29.66 21.92 44.96 33.26 62.0 Not Reported 0.89 W 0.00 NW 6.04 S Yes x Unknown 03/13/2018 10:21 PM   x x x x x Not Reported Not Reported
03/13/2018 11:08 PM 33.26 29.66 22.10 44.96 33.08 63.0 Not Reported 1.12 W 3.80 SW 7.83 NW Yes x Unknown 03/13/2018 10:21 PM   x x x x x Not Reported Not Reported
03/13/2018 11:23 PM 33.08 29.48 21.74 44.96 33.08 62.0 Not Reported 4.03 SW 2.24 W 9.40 NW No x No Precipitation 03/13/2018 11:20 PM 03/13/2018 11:21 PM x x x x x Not Reported Not Reported
03/13/2018 11:38 PM 33.08 29.48 21.20 44.96 33.08 60.0 Not Reported 5.82 SE 3.13 SW 11.86 SW Yes x Unknown 03/13/2018 11:38 PM   x x x x x Not Reported Not Reported
03/13/2018 11:53 PM 33.08 29.30 21.02 44.96 33.08 60.0 Not Reported 4.03 W 4.70 NW 8.72 S Yes x Unknown 03/13/2018 11:38 PM   x x x x x Not Reported Not Reported